createdAt,value
2018-02-08T00:01:03.126Z,62.96
2018-02-08T00:03:31.103Z,62.33
2018-02-08T00:05:58.792Z,62.59
2018-02-08T00:08:26.568Z,63.14
2018-02-08T00:10:54.275Z,62.95
2018-02-08T00:13:21.954Z,62.76
2018-02-08T00:15:49.911Z,62.77
2018-02-08T00:18:17.588Z,62.17
2018-02-08T00:20:45.252Z,62.64
2018-02-08T00:23:12.948Z,63.12
2018-02-08T00:25:41.007Z,63.58
2018-02-08T00:28:08.699Z,63.51
2018-02-08T00:30:36.378Z,64.53
2018-02-08T00:33:04.278Z,64.44
2018-02-08T00:35:31.951Z,64.95
2018-02-08T00:37:59.634Z,65.04
2018-02-08T00:40:27.356Z,65.08
2018-02-08T00:42:55.019Z,65.25
2018-02-08T00:45:22.722Z,64.27
2018-02-08T00:47:50.400Z,64.24
2018-02-08T00:50:18.304Z,64.19
2018-02-08T00:52:45.973Z,64.79
2018-02-08T00:55:13.671Z,65.54
2018-02-08T00:57:41.371Z,65.25
2018-02-08T01:00:09.075Z,64.91
2018-02-08T01:02:36.773Z,64.95
2018-02-08T01:05:04.463Z,65.22
2018-02-08T01:07:32.311Z,65.26
2018-02-08T01:09:59.983Z,65.59
2018-02-08T01:12:27.659Z,65.07
2018-02-08T01:14:55.355Z,65.56
2018-02-08T01:17:23.033Z,65.57
2018-02-08T01:19:50.722Z,65.39
2018-02-08T01:22:18.385Z,65.79
2018-02-08T01:24:46.190Z,65.89
2018-02-08T01:27:13.858Z,65.60
2018-02-08T01:29:41.520Z,65.49
2018-02-08T01:32:09.205Z,65.57
2018-02-08T01:34:36.879Z,65.66
2018-02-08T01:37:04.572Z,65.28
2018-02-08T01:39:32.247Z,64.71
2018-02-08T01:42:00.248Z,64.71
2018-02-08T01:44:27.914Z,64.50
2018-02-08T01:46:55.583Z,64.65
2018-02-08T01:49:34.921Z,64.80
2018-02-08T01:52:02.603Z,64.93
2018-02-08T01:54:30.322Z,64.70
2018-02-08T01:56:58.011Z,63.86
2018-02-08T01:59:25.724Z,63.68
2018-02-08T02:01:53.409Z,63.64
2018-02-08T02:04:21.089Z,63.64
2018-02-08T02:06:48.786Z,63.52
2018-02-08T02:09:16.454Z,63.78
2018-02-08T02:11:44.148Z,63.74
2018-02-08T02:14:11.834Z,64.09
2018-02-08T02:16:39.562Z,64.58
2018-02-08T02:19:07.240Z,64.92
2018-02-08T02:21:34.897Z,64.66
2018-02-08T02:24:02.665Z,64.59
2018-02-08T02:26:30.339Z,64.72
2018-02-08T02:28:58.031Z,64.27
2018-02-08T02:31:25.713Z,63.74
2018-02-08T02:33:53.621Z,63.18
2018-02-08T02:36:21.294Z,63.22
2018-02-08T02:38:48.992Z,63.60
2018-02-08T02:41:16.687Z,63.60
2018-02-08T02:43:44.379Z,63.72
2018-02-08T02:46:12.092Z,63.99
2018-02-08T02:48:39.776Z,63.94
2018-02-08T02:51:07.483Z,63.68
2018-02-08T02:53:35.156Z,63.52
2018-02-08T02:56:02.825Z,63.72
2018-02-08T02:58:30.514Z,63.48
2018-02-08T03:00:58.179Z,62.81
2018-02-08T03:03:25.887Z,63.18
2018-02-08T03:05:53.559Z,63.49
2018-02-08T03:08:21.413Z,63.68
2018-02-08T03:10:49.087Z,63.52
2018-02-08T03:13:16.759Z,62.84
2018-02-08T03:15:44.463Z,62.61
2018-02-08T03:18:12.147Z,63.14
2018-02-08T03:20:39.836Z,63.55
2018-02-08T03:23:07.504Z,64.02
2018-02-08T03:25:35.345Z,63.11
2018-02-08T03:28:03.021Z,62.77
2018-02-08T03:30:31.538Z,63.28
2018-02-08T03:32:59.232Z,62.99
2018-02-08T03:35:26.906Z,63.11
2018-02-08T03:37:54.596Z,63.13
2018-02-08T03:40:22.288Z,63.49
2018-02-08T03:42:50.323Z,63.49
2018-02-08T03:45:18.006Z,63.37
2018-02-08T03:47:45.675Z,62.50
2018-02-08T03:50:13.367Z,63.19
2018-02-08T03:52:41.052Z,62.75
2018-02-08T03:55:08.745Z,63.05
2018-02-08T03:57:36.407Z,62.74
2018-02-08T04:00:04.375Z,63.16
2018-02-08T04:02:32.044Z,63.64
2018-02-08T04:04:59.711Z,63.56
2018-02-08T04:07:27.404Z,64.30
2018-02-08T04:09:55.067Z,64.66
2018-02-08T04:12:22.762Z,65.11
2018-02-08T04:14:50.450Z,65.20
2018-02-08T04:17:18.183Z,64.80
2018-02-08T04:19:45.853Z,64.16
2018-02-08T04:22:13.529Z,64.39
2018-02-08T04:24:41.300Z,64.24
2018-02-08T04:27:08.985Z,64.07
2018-02-08T04:29:37.022Z,63.99
2018-02-08T04:32:04.719Z,64.23
2018-02-08T04:34:32.383Z,63.87
2018-02-08T04:37:00.092Z,63.89
2018-02-08T04:39:39.279Z,64.01
2018-02-08T04:42:18.704Z,64.41
2018-02-08T04:44:58.105Z,63.55
2018-02-08T04:47:34.527Z,63.20
2018-02-08T04:50:02.197Z,63.17
2018-02-08T04:52:29.895Z,63.53
2018-02-08T04:54:57.573Z,63.79
2018-02-08T04:57:25.280Z,63.46
2018-02-08T04:59:52.935Z,63.37
2018-02-08T05:02:20.610Z,63.38
2018-02-08T05:04:48.300Z,63.57
2018-02-08T05:07:15.996Z,63.61
2018-02-08T05:09:43.679Z,63.67
2018-02-08T05:12:11.359Z,64.11
2018-02-08T05:14:39.043Z,64.39
2018-02-08T05:17:06.733Z,63.93
2018-02-08T05:19:34.406Z,63.75
2018-02-08T05:22:02.209Z,63.59
2018-02-08T05:24:29.875Z,63.78
2018-02-08T05:26:57.537Z,63.65
2018-02-08T05:29:25.250Z,63.79
2018-02-08T05:31:52.928Z,64.24
2018-02-08T05:34:20.643Z,64.50
2018-02-08T05:36:48.319Z,65.28
2018-02-08T05:39:15.996Z,65.18
2018-02-08T05:41:43.693Z,66.18
2018-02-08T05:44:11.370Z,66.20
2018-02-08T05:46:39.064Z,66.11
2018-02-08T05:49:06.732Z,66.30
2018-02-08T05:51:34.820Z,65.63
2018-02-08T05:54:02.491Z,65.28
2018-02-08T05:56:30.321Z,65.28
2018-02-08T05:58:58.028Z,65.06
2018-02-08T06:01:25.707Z,66.12
2018-02-08T06:03:53.395Z,66.04
2018-02-08T06:06:21.052Z,66.24
2018-02-08T06:08:48.967Z,66.56
2018-02-08T06:11:16.638Z,65.94
2018-02-08T06:13:44.328Z,65.68
2018-02-08T06:16:12.013Z,65.66
2018-02-08T06:18:39.680Z,65.74
2018-02-08T06:21:07.368Z,65.21
2018-02-08T06:23:35.037Z,65.36
2018-02-08T06:26:02.746Z,65.73
2018-02-08T06:28:30.413Z,65.65
2018-02-08T06:30:58.080Z,65.80
2018-02-08T06:33:25.795Z,65.25
2018-02-08T06:35:53.488Z,65.61
2018-02-08T06:38:21.193Z,65.40
2018-02-08T06:40:48.861Z,65.37
2018-02-08T06:43:16.849Z,65.70
2018-02-08T06:45:44.523Z,65.76
2018-02-08T06:48:12.198Z,65.72
2018-02-08T06:50:39.887Z,65.88
2018-02-08T06:53:07.581Z,65.56
2018-02-08T06:55:35.274Z,65.66
2018-02-08T06:58:04.421Z,65.66
2018-02-08T07:00:32.314Z,65.65
2018-02-08T07:03:00.059Z,65.34
2018-02-08T07:05:27.743Z,66.05
2018-02-08T07:07:55.441Z,66.87
2018-02-08T07:10:23.111Z,67.63
2018-02-08T07:12:50.836Z,67.41
2018-02-08T07:15:18.515Z,67.23
2018-02-08T07:17:46.231Z,67.83
2018-02-08T07:20:14.039Z,68.03
2018-02-08T07:22:41.721Z,67.91
2018-02-08T07:25:09.409Z,67.81
2018-02-08T07:27:37.075Z,67.40
2018-02-08T07:30:04.781Z,66.73
2018-02-08T07:32:32.465Z,67.06
2018-02-08T07:35:00.423Z,67.49
2018-02-08T07:37:28.108Z,68.13
2018-02-08T07:39:55.779Z,67.40
2018-02-08T07:42:23.484Z,67.10
2018-02-08T07:44:51.158Z,67.26
2018-02-08T07:47:19.047Z,67.33
2018-02-08T07:49:46.716Z,66.39
2018-02-08T07:52:14.537Z,66.53
2018-02-08T07:54:42.201Z,65.24
2018-02-08T07:57:09.872Z,65.27
2018-02-08T07:59:37.588Z,65.86
2018-02-08T08:02:05.269Z,64.89
2018-02-08T08:04:32.963Z,64.46
2018-02-08T08:07:00.630Z,64.37
2018-02-08T08:09:28.705Z,64.64
2018-02-08T08:11:56.374Z,63.82
2018-02-08T08:14:24.075Z,63.99
2018-02-08T08:16:51.776Z,63.45
2018-02-08T08:19:19.438Z,64.48
2018-02-08T08:21:47.148Z,64.93
2018-02-08T08:24:14.840Z,65.09
2018-02-08T08:26:42.695Z,64.86
2018-02-08T08:29:10.375Z,64.94
2018-02-08T08:31:38.046Z,64.31
2018-02-08T08:34:05.743Z,63.66
2018-02-08T08:36:33.413Z,64.54
2018-02-08T08:39:01.131Z,63.85
2018-02-08T08:41:28.821Z,64.14
2018-02-08T08:43:56.713Z,64.38
2018-02-08T08:46:24.409Z,64.68
2018-02-08T08:48:52.159Z,65.09
2018-02-08T08:51:19.864Z,64.42
2018-02-08T08:53:47.541Z,64.66
2018-02-08T08:56:15.231Z,65.22
2018-02-08T08:58:42.924Z,64.91
2018-02-08T09:01:10.631Z,65.38
2018-02-08T09:03:38.319Z,65.47
2018-02-08T09:06:05.988Z,65.51
2018-02-08T09:08:33.684Z,65.74
2018-02-08T09:11:01.371Z,65.85
2018-02-08T09:13:29.247Z,65.91
2018-02-08T09:15:56.923Z,65.73
2018-02-08T09:18:24.604Z,65.37
2018-02-08T09:20:52.287Z,65.34
2018-02-08T09:23:20.198Z,65.99
2018-02-08T09:25:48.094Z,66.16
2018-02-08T09:28:15.759Z,65.84
2018-02-08T09:30:43.439Z,65.66
2018-02-08T09:33:11.132Z,64.40
2018-02-08T09:35:38.806Z,64.73
2018-02-08T09:38:06.552Z,63.92
2018-02-08T09:40:34.209Z,63.86
2018-02-08T09:43:01.911Z,63.57
2018-02-08T09:45:29.575Z,63.15
2018-02-08T09:47:57.260Z,63.20
2018-02-08T09:50:24.948Z,62.64
2018-02-08T09:52:52.990Z,62.64
2018-02-08T09:55:20.674Z,62.86
2018-02-08T09:57:48.338Z,63.11
2018-02-08T10:00:16.073Z,63.34
2018-02-08T10:02:43.834Z,63.93
2018-02-08T10:05:11.511Z,63.69
2018-02-08T10:07:39.224Z,63.50
2018-02-08T10:10:06.904Z,63.22
2018-02-08T10:12:34.625Z,62.89
2018-02-08T10:15:02.300Z,61.79
2018-02-08T10:17:30.716Z,62.26
2018-02-08T10:19:58.397Z,61.46
2018-02-08T10:22:26.374Z,61.63
2018-02-08T10:24:54.073Z,61.12
2018-02-08T10:27:21.741Z,60.96
2018-02-08T10:29:49.434Z,61.41
2018-02-08T10:32:17.129Z,62.08
2018-02-08T10:34:44.939Z,61.96
2018-02-08T10:37:12.638Z,60.99
2018-02-08T10:39:40.312Z,60.98
2018-02-08T10:42:08.016Z,62.23
2018-02-08T10:44:35.841Z,63.01
2018-02-08T10:47:03.531Z,61.92
2018-02-08T10:49:31.212Z,60.76
2018-02-08T10:51:59.453Z,59.86
2018-02-08T10:54:27.484Z,60.74
2018-02-08T10:56:55.778Z,60.81
2018-02-08T10:59:23.468Z,61.65
2018-02-08T11:01:51.434Z,61.38
2018-02-08T11:04:19.611Z,60.96
2018-02-08T11:06:47.283Z,61.72
2018-02-08T11:09:14.992Z,60.89
2018-02-08T11:11:42.672Z,60.87
2018-02-08T11:14:10.340Z,61.02
2018-02-08T11:16:38.027Z,60.94
2018-02-08T11:19:05.705Z,60.77
2018-02-08T11:21:33.424Z,60.70
2018-02-08T11:24:01.407Z,60.44
2018-02-08T11:26:29.288Z,60.48
2018-02-08T11:28:56.965Z,59.78
2018-02-08T11:31:24.661Z,60.17
2018-02-08T11:33:52.346Z,60.78
2018-02-08T11:36:20.031Z,60.33
2018-02-08T11:38:47.728Z,60.37
2018-02-08T11:41:15.411Z,60.71
2018-02-08T11:43:43.298Z,60.82
2018-02-08T11:46:10.982Z,59.64
2018-02-08T11:48:38.731Z,60.08
2018-02-08T11:51:06.436Z,60.15
2018-02-08T11:53:34.480Z,59.98
2018-02-08T11:56:02.200Z,58.83
2018-02-08T11:58:29.879Z,58.98
2018-02-08T12:00:58.004Z,59.23
2018-02-08T12:03:25.692Z,58.90
2018-02-08T12:05:53.664Z,57.79
2018-02-08T12:08:21.551Z,57.51
2018-02-08T12:10:49.220Z,57.91
2018-02-08T12:13:16.993Z,57.15
2018-02-08T12:15:44.675Z,57.19
2018-02-08T12:18:12.378Z,57.75
2018-02-08T12:20:40.112Z,56.79
2018-02-08T12:23:08.067Z,57.64
2018-02-08T12:25:35.748Z,58.14
2018-02-08T12:28:03.423Z,57.27
2018-02-08T12:30:31.114Z,58.87
2018-02-08T12:32:58.817Z,60.25
2018-02-08T12:35:26.684Z,58.33
2018-02-08T12:37:54.348Z,59.00
2018-02-08T12:40:22.046Z,59.23
2018-02-08T12:42:50.326Z,58.53
2018-02-08T12:45:18.141Z,59.46
2018-02-08T12:47:45.839Z,60.06
2018-02-08T12:50:13.552Z,60.75
2018-02-08T12:52:41.855Z,61.03
2018-02-08T12:55:09.827Z,57.38
2018-02-08T12:57:37.502Z,57.39
2018-02-08T13:00:05.199Z,58.33
2018-02-08T13:02:32.898Z,58.16
2018-02-08T13:05:00.609Z,56.77
2018-02-08T13:07:28.286Z,57.33
2018-02-08T13:09:55.964Z,57.34
2018-02-08T13:12:23.657Z,56.75
2018-02-08T13:14:51.343Z,57.11
2018-02-08T13:17:19.167Z,57.81
2018-02-08T13:19:46.843Z,57.54
2018-02-08T13:22:14.933Z,57.52
2018-02-08T13:24:42.899Z,59.06
2018-02-08T13:27:10.579Z,58.50
2018-02-08T13:29:38.267Z,57.88
2018-02-08T13:32:05.950Z,58.10
2018-02-08T13:34:33.675Z,58.18
2018-02-08T13:37:01.383Z,58.55
2018-02-08T13:39:31.662Z,58.45
2018-02-08T13:42:04.919Z,59.35
2018-02-08T13:44:32.619Z,58.34
2018-02-08T13:47:00.315Z,58.75
2018-02-08T13:49:28.309Z,58.85
2018-02-08T13:52:03.446Z,58.72
2018-02-08T13:54:36.842Z,58.71
2018-02-08T13:57:10.034Z,58.87
2018-02-08T13:59:40.101Z,58.86
2018-02-08T14:02:10.819Z,58.66
2018-02-08T14:04:39.373Z,58.63
2018-02-08T14:07:07.348Z,59.05
2018-02-08T14:09:35.023Z,58.83
2018-02-08T14:12:02.757Z,59.40
2018-02-08T14:14:30.523Z,57.88
2018-02-08T14:16:58.181Z,58.14
2018-02-08T14:19:25.887Z,57.57
2018-02-08T14:21:53.575Z,59.04
2018-02-08T14:24:21.503Z,59.49
2018-02-08T14:26:49.182Z,59.18
2018-02-08T14:29:17.041Z,58.66
2018-02-08T14:31:44.745Z,59.46
2018-02-08T14:34:12.442Z,59.02
2018-02-08T14:36:40.136Z,59.93
2018-02-08T14:39:07.802Z,58.58
2018-02-08T14:41:35.491Z,58.80
2018-02-08T14:44:03.164Z,59.72
2018-02-08T14:46:31.117Z,58.49
2018-02-08T14:48:58.785Z,58.51
2018-02-08T14:51:26.474Z,59.14
2018-02-08T14:53:54.662Z,59.57
2018-02-08T14:56:22.327Z,59.89
2018-02-08T14:58:51.169Z,59.23
2018-02-08T15:01:19.911Z,59.90
2018-02-08T15:03:48.184Z,58.28
2018-02-08T15:06:15.892Z,57.78
2018-02-08T15:08:43.635Z,57.32
2018-02-08T15:11:11.350Z,58.02
2018-02-08T15:13:39.018Z,59.58
2018-02-08T15:16:06.735Z,58.02
2018-02-08T15:18:34.446Z,58.77
2018-02-08T15:21:04.510Z,59.66
